sensor_id;sensor_type;location;lat;lon;timestamp;P1;durP1;ratioP1;P2;durP2;ratioP2
5125;SDS011;63008;53.112;8.896;2024-01-10T00:01:54;24.30;;;15.73;;
5125;SDS011;63008;53.112;8.896;2024-01-10T00:03:55;21.77;;;15.50;;
5125;SDS011;63008;53.112;8.896;2024-01-10T00:05:56;20.60;;;13.77;;
5125;SDS011;63008;53.112;8.896;2024-01-10T00:07:57;21.43;;;15.10;;
5125;SDS011;63008;53.112;8.896;2024-01-10T00:09:58;25.90;;;16.37;;
5125;SDS011;63008;53.112;8.896;2024-01-10T00:12:01;22.93;;;15.87;;
5125;SDS011;63008;53.112;8.896;2024-01-10T00:14:03;22.60;;;16.33;;
5125;SDS011;63008;53.112;8.896;2024-01-10T00:16:04;21.93;;;15.83;;
5125;SDS011;63008;53.112;8.896;2024-01-10T00:18:05;22.33;;;16.47;;
5125;SDS011;63008;53.112;8.896;2024-01-10T00:20:07;24.13;;;16.50;;
5125;SDS011;63008;53.112;8.896;2024-01-10T00:22:08;23.23;;;16.00;;
5125;SDS011;63008;53.112;8.896;2024-01-10T00:24:10;22.97;;;16.90;;
5125;SDS011;63008;53.112;8.896;2024-01-10T00:26:11;23.13;;;16.67;;
5125;SDS011;63008;53.112;8.896;2024-01-10T00:28:12;28.33;;;17.73;;
5125;SDS011;63008;53.112;8.896;2024-01-10T00:30:13;24.37;;;17.40;;
5125;SDS011;63008;53.112;8.896;2024-01-10T00:32:14;31.60;;;18.67;;
5125;SDS011;63008;53.112;8.896;2024-01-10T00:34:15;24.43;;;16.90;;
5125;SDS011;63008;53.112;8.896;2024-01-10T00:36:16;24.13;;;17.30;;
5125;SDS011;63008;53.112;8.896;2024-01-10T00:38:17;24.67;;;16.83;;
5125;SDS011;63008;53.112;8.896;2024-01-10T00:40:17;23.40;;;18.07;;
5125;SDS011;63008;53.112;8.896;2024-01-10T00:42:18;25.67;;;18.03;;
5125;SDS011;63008;53.112;8.896;2024-01-10T00:44:19;28.00;;;17.73;;
5125;SDS011;63008;53.112;8.896;2024-01-10T00:46:20;21.43;;;17.10;;
5125;SDS011;63008;53.112;8.896;2024-01-10T00:48:21;25.73;;;18.57;;
5125;SDS011;63008;53.112;8.896;2024-01-10T00:50:22;25.90;;;17.10;;
5125;SDS011;63008;53.112;8.896;2024-01-10T00:52:23;27.37;;;17.90;;
5125;SDS011;63008;53.112;8.896;2024-01-10T00:54:24;33.77;;;17.80;;
5125;SDS011;63008;53.112;8.896;2024-01-10T00:56:25;27.90;;;18.90;;
5125;SDS011;63008;53.112;8.896;2024-01-10T00:58:26;30.13;;;19.30;;
5125;SDS011;63008;53.112;8.896;2024-01-10T01:00:27;34.27;;;19.70;;
5125;SDS011;63008;53.112;8.896;2024-01-10T01:02:28;25.53;;;18.23;;
5125;SDS011;63008;53.112;8.896;2024-01-10T01:04:29;29.57;;;19.03;;
5125;SDS011;63008;53.112;8.896;2024-01-10T01:06:30;26.40;;;18.13;;
5125;SDS011;63008;53.112;8.896;2024-01-10T01:08:31;27.20;;;19.13;;
5125;SDS011;63008;53.112;8.896;2024-01-10T01:10:33;29.50;;;16.80;;
5125;SDS011;63008;53.112;8.896;2024-01-10T01:12:34;25.47;;;17.73;;
5125;SDS011;63008;53.112;8.896;2024-01-10T01:14:35;27.27;;;17.37;;
5125;SDS011;63008;53.112;8.896;2024-01-10T01:16:36;22.57;;;18.03;;
5125;SDS011;63008;53.112;8.896;2024-01-10T01:18:37;25.40;;;17.30;;
5125;SDS011;63008;53.112;8.896;2024-01-10T01:20:38;27.63;;;18.40;;
5125;SDS011;63008;53.112;8.896;2024-01-10T01:22:39;24.63;;;17.27;;
5125;SDS011;63008;53.112;8.896;2024-01-10T01:24:40;23.83;;;18.17;;
5125;SDS011;63008;53.112;8.896;2024-01-10T01:26:41;22.63;;;17.20;;
5125;SDS011;63008;53.112;8.896;2024-01-10T01:28:42;27.07;;;18.20;;
5125;SDS011;63008;53.112;8.896;2024-01-10T01:30:43;25.13;;;17.57;;
5125;SDS011;63008;53.112;8.896;2024-01-10T01:32:44;27.07;;;17.90;;
5125;SDS011;63008;53.112;8.896;2024-01-10T01:34:45;24.40;;;17.40;;
5125;SDS011;63008;53.112;8.896;2024-01-10T01:36:46;26.37;;;18.27;;
5125;SDS011;63008;53.112;8.896;2024-01-10T01:38:47;24.73;;;17.43;;
5125;SDS011;63008;53.112;8.896;2024-01-10T01:40:48;23.13;;;17.50;;
5125;SDS011;63008;53.112;8.896;2024-01-10T01:42:49;23.33;;;16.63;;
5125;SDS011;63008;53.112;8.896;2024-01-10T01:44:50;26.50;;;17.23;;
5125;SDS011;63008;53.112;8.896;2024-01-10T01:46:51;25.43;;;18.57;;
5125;SDS011;63008;53.112;8.896;2024-01-10T01:48:52;25.77;;;17.10;;
5125;SDS011;63008;53.112;8.896;2024-01-10T01:50:56;24.43;;;16.10;;
5125;SDS011;63008;53.112;8.896;2024-01-10T01:53:01;20.23;;;16.90;;
5125;SDS011;63008;53.112;8.896;2024-01-10T01:55:02;24.73;;;17.17;;
5125;SDS011;63008;53.112;8.896;2024-01-10T01:57:03;23.70;;;16.97;;
5125;SDS011;63008;53.112;8.896;2024-01-10T01:59:04;25.17;;;17.00;;
5125;SDS011;63008;53.112;8.896;2024-01-10T02:01:05;21.00;;;16.37;;
5125;SDS011;63008;53.112;8.896;2024-01-10T02:03:08;24.30;;;17.97;;
5125;SDS011;63008;53.112;8.896;2024-01-10T02:05:09;25.77;;;17.07;;
5125;SDS011;63008;53.112;8.896;2024-01-10T02:07:11;23.50;;;17.90;;
5125;SDS011;63008;53.112;8.896;2024-01-10T02:09:13;25.60;;;17.27;;
5125;SDS011;63008;53.112;8.896;2024-01-10T02:11:14;20.60;;;16.90;;
5125;SDS011;63008;53.112;8.896;2024-01-10T02:13:15;27.43;;;19.67;;
5125;SDS011;63008;53.112;8.896;2024-01-10T02:15:17;24.10;;;17.43;;
5125;SDS011;63008;53.112;8.896;2024-01-10T02:17:18;23.83;;;17.50;;
5125;SDS011;63008;53.112;8.896;2024-01-10T02:19:20;21.70;;;17.10;;
5125;SDS011;63008;53.112;8.896;2024-01-10T02:21:22;26.90;;;18.70;;
5125;SDS011;63008;53.112;8.896;2024-01-10T02:23:23;25.53;;;18.23;;
5125;SDS011;63008;53.112;8.896;2024-01-10T02:25:24;21.80;;;17.07;;
5125;SDS011;63008;53.112;8.896;2024-01-10T02:27:25;24.10;;;18.27;;
5125;SDS011;63008;53.112;8.896;2024-01-10T02:29:26;30.40;;;19.40;;
5125;SDS011;63008;53.112;8.896;2024-01-10T02:31:27;24.80;;;18.93;;
5125;SDS011;63008;53.112;8.896;2024-01-10T02:33:28;28.33;;;20.30;;
5125;SDS011;63008;53.112;8.896;2024-01-10T02:35:29;25.87;;;18.30;;
5125;SDS011;63008;53.112;8.896;2024-01-10T02:37:33;26.80;;;18.27;;
5125;SDS011;63008;53.112;8.896;2024-01-10T02:39:34;20.93;;;16.87;;
5125;SDS011;63008;53.112;8.896;2024-01-10T02:41:35;21.97;;;16.57;;
5125;SDS011;63008;53.112;8.896;2024-01-10T02:43:36;24.80;;;18.50;;
5125;SDS011;63008;53.112;8.896;2024-01-10T02:45:37;23.33;;;17.80;;
5125;SDS011;63008;53.112;8.896;2024-01-10T02:47:38;23.67;;;18.43;;
5125;SDS011;63008;53.112;8.896;2024-01-10T02:49:39;28.23;;;19.60;;
5125;SDS011;63008;53.112;8.896;2024-01-10T02:51:40;25.63;;;18.03;;
5125;SDS011;63008;53.112;8.896;2024-01-10T02:53:41;23.57;;;18.07;;
5125;SDS011;63008;53.112;8.896;2024-01-10T02:55:42;25.17;;;18.53;;
5125;SDS011;63008;53.112;8.896;2024-01-10T02:57:44;26.77;;;18.57;;
5125;SDS011;63008;53.112;8.896;2024-01-10T02:59:45;23.77;;;18.53;;
5125;SDS011;63008;53.112;8.896;2024-01-10T03:01:45;25.23;;;19.20;;
5125;SDS011;63008;53.112;8.896;2024-01-10T03:03:46;24.57;;;19.00;;
5125;SDS011;63008;53.112;8.896;2024-01-10T03:05:47;27.00;;;19.57;;
5125;SDS011;63008;53.112;8.896;2024-01-10T03:07:48;27.30;;;19.10;;
5125;SDS011;63008;53.112;8.896;2024-01-10T03:09:49;27.50;;;18.80;;
5125;SDS011;63008;53.112;8.896;2024-01-10T03:11:50;25.50;;;19.20;;
5125;SDS011;63008;53.112;8.896;2024-01-10T03:13:53;25.73;;;19.30;;
5125;SDS011;63008;53.112;8.896;2024-01-10T03:16:01;27.33;;;18.90;;
5125;SDS011;63008;53.112;8.896;2024-01-10T03:18:03;26.30;;;18.50;;
5125;SDS011;63008;53.112;8.896;2024-01-10T03:20:04;24.87;;;18.43;;
5125;SDS011;63008;53.112;8.896;2024-01-10T03:22:05;28.60;;;18.73;;
5125;SDS011;63008;53.112;8.896;2024-01-10T03:24:06;27.77;;;19.87;;
5125;SDS011;63008;53.112;8.896;2024-01-10T03:26:09;26.77;;;18.83;;
5125;SDS011;63008;53.112;8.896;2024-01-10T03:28:10;26.83;;;19.60;;
5125;SDS011;63008;53.112;8.896;2024-01-10T03:30:11;27.90;;;19.90;;
5125;SDS011;63008;53.112;8.896;2024-01-10T03:32:12;26.60;;;20.03;;
5125;SDS011;63008;53.112;8.896;2024-01-10T03:34:14;27.33;;;19.87;;
5125;SDS011;63008;53.112;8.896;2024-01-10T03:36:15;31.97;;;20.53;;
5125;SDS011;63008;53.112;8.896;2024-01-10T03:38:17;29.70;;;21.43;;
5125;SDS011;63008;53.112;8.896;2024-01-10T03:40:18;30.10;;;21.50;;
5125;SDS011;63008;53.112;8.896;2024-01-10T03:42:19;29.20;;;21.50;;
5125;SDS011;63008;53.112;8.896;2024-01-10T03:44:20;30.00;;;21.30;;
5125;SDS011;63008;53.112;8.896;2024-01-10T03:46:21;27.53;;;21.03;;
5125;SDS011;63008;53.112;8.896;2024-01-10T03:48:22;31.33;;;22.93;;
5125;SDS011;63008;53.112;8.896;2024-01-10T03:50:23;26.63;;;20.63;;
5125;SDS011;63008;53.112;8.896;2024-01-10T03:52:24;33.27;;;22.70;;
5125;SDS011;63008;53.112;8.896;2024-01-10T03:54:25;26.83;;;20.43;;
5125;SDS011;63008;53.112;8.896;2024-01-10T03:56:26;30.60;;;22.57;;
5125;SDS011;63008;53.112;8.896;2024-01-10T03:58:27;28.30;;;21.87;;
5125;SDS011;63008;53.112;8.896;2024-01-10T04:00:28;29.40;;;21.37;;
5125;SDS011;63008;53.112;8.896;2024-01-10T04:02:29;26.43;;;21.40;;
5125;SDS011;63008;53.112;8.896;2024-01-10T04:04:30;27.80;;;21.60;;
5125;SDS011;63008;53.112;8.896;2024-01-10T04:06:31;27.63;;;20.93;;
5125;SDS011;63008;53.112;8.896;2024-01-10T04:08:32;30.20;;;21.37;;
5125;SDS011;63008;53.112;8.896;2024-01-10T04:10:33;27.23;;;19.27;;
5125;SDS011;63008;53.112;8.896;2024-01-10T04:12:34;25.27;;;19.80;;
5125;SDS011;63008;53.112;8.896;2024-01-10T04:14:34;30.10;;;21.60;;
5125;SDS011;63008;53.112;8.896;2024-01-10T04:16:35;29.87;;;20.73;;
5125;SDS011;63008;53.112;8.896;2024-01-10T04:18:36;26.90;;;20.27;;
5125;SDS011;63008;53.112;8.896;2024-01-10T04:20:37;29.53;;;20.30;;
5125;SDS011;63008;53.112;8.896;2024-01-10T04:22:38;26.87;;;20.00;;
5125;SDS011;63008;53.112;8.896;2024-01-10T04:24:39;27.07;;;20.67;;
5125;SDS011;63008;53.112;8.896;2024-01-10T04:26:40;30.70;;;21.53;;
5125;SDS011;63008;53.112;8.896;2024-01-10T04:28:42;33.97;;;21.80;;
5125;SDS011;63008;53.112;8.896;2024-01-10T04:30:43;28.90;;;21.80;;
5125;SDS011;63008;53.112;8.896;2024-01-10T04:32:44;30.20;;;19.93;;
5125;SDS011;63008;53.112;8.896;2024-01-10T04:34:45;27.27;;;20.80;;
5125;SDS011;63008;53.112;8.896;2024-01-10T04:36:46;28.30;;;21.40;;
5125;SDS011;63008;53.112;8.896;2024-01-10T04:38:47;28.23;;;21.50;;
5125;SDS011;63008;53.112;8.896;2024-01-10T04:40:48;29.83;;;21.80;;
5125;SDS011;63008;53.112;8.896;2024-01-10T04:42:49;30.70;;;23.10;;
5125;SDS011;63008;53.112;8.896;2024-01-10T04:44:50;34.00;;;22.20;;
5125;SDS011;63008;53.112;8.896;2024-01-10T04:46:51;35.70;;;22.97;;
5125;SDS011;63008;53.112;8.896;2024-01-10T04:48:52;29.57;;;22.93;;
5125;SDS011;63008;53.112;8.896;2024-01-10T04:50:53;36.90;;;23.13;;
5125;SDS011;63008;53.112;8.896;2024-01-10T04:52:54;32.00;;;23.20;;
5125;SDS011;63008;53.112;8.896;2024-01-10T04:54:55;29.27;;;20.73;;
5125;SDS011;63008;53.112;8.896;2024-01-10T04:56:56;32.23;;;22.90;;
5125;SDS011;63008;53.112;8.896;2024-01-10T04:58:57;36.87;;;24.13;;
5125;SDS011;63008;53.112;8.896;2024-01-10T05:00:58;30.47;;;21.80;;
5125;SDS011;63008;53.112;8.896;2024-01-10T05:02:59;34.00;;;23.70;;
5125;SDS011;63008;53.112;8.896;2024-01-10T05:05:00;34.07;;;22.40;;
5125;SDS011;63008;53.112;8.896;2024-01-10T05:07:01;32.90;;;23.83;;
5125;SDS011;63008;53.112;8.896;2024-01-10T05:09:02;34.60;;;24.73;;
5125;SDS011;63008;53.112;8.896;2024-01-10T05:11:05;32.97;;;23.77;;
5125;SDS011;63008;53.112;8.896;2024-01-10T05:13:06;34.53;;;23.50;;
5125;SDS011;63008;53.112;8.896;2024-01-10T05:15:07;38.60;;;24.67;;
5125;SDS011;63008;53.112;8.896;2024-01-10T05:17:08;34.27;;;23.43;;
5125;SDS011;63008;53.112;8.896;2024-01-10T05:19:09;30.83;;;22.53;;
5125;SDS011;63008;53.112;8.896;2024-01-10T05:21:11;34.47;;;23.70;;
5125;SDS011;63008;53.112;8.896;2024-01-10T05:23:12;33.77;;;23.53;;
5125;SDS011;63008;53.112;8.896;2024-01-10T05:25:12;35.57;;;23.27;;
5125;SDS011;63008;53.112;8.896;2024-01-10T05:27:13;29.07;;;21.67;;
5125;SDS011;63008;53.112;8.896;2024-01-10T05:29:14;32.00;;;22.70;;
5125;SDS011;63008;53.112;8.896;2024-01-10T05:31:15;35.50;;;24.30;;
5125;SDS011;63008;53.112;8.896;2024-01-10T05:33:16;37.50;;;22.17;;
5125;SDS011;63008;53.112;8.896;2024-01-10T05:35:17;30.20;;;21.97;;
5125;SDS011;63008;53.112;8.896;2024-01-10T05:37:18;33.93;;;22.67;;
5125;SDS011;63008;53.112;8.896;2024-01-10T05:39:20;33.17;;;20.80;;
5125;SDS011;63008;53.112;8.896;2024-01-10T05:41:22;28.00;;;21.20;;
5125;SDS011;63008;53.112;8.896;2024-01-10T05:43:23;32.03;;;21.17;;
5125;SDS011;63008;53.112;8.896;2024-01-10T05:45:24;26.63;;;20.50;;
5125;SDS011;63008;53.112;8.896;2024-01-10T05:47:25;25.83;;;19.80;;
5125;SDS011;63008;53.112;8.896;2024-01-10T05:49:30;30.37;;;20.97;;
5125;SDS011;63008;53.112;8.896;2024-01-10T05:51:31;32.80;;;20.00;;
5125;SDS011;63008;53.112;8.896;2024-01-10T05:53:33;28.30;;;19.20;;
5125;SDS011;63008;53.112;8.896;2024-01-10T05:55:33;28.90;;;19.67;;
5125;SDS011;63008;53.112;8.896;2024-01-10T05:57:37;26.40;;;19.37;;
5125;SDS011;63008;53.112;8.896;2024-01-10T05:59:38;28.40;;;19.33;;
5125;SDS011;63008;53.112;8.896;2024-01-10T06:01:39;28.27;;;20.10;;
5125;SDS011;63008;53.112;8.896;2024-01-10T06:03:41;32.30;;;20.57;;
5125;SDS011;63008;53.112;8.896;2024-01-10T06:05:41;30.30;;;20.60;;
5125;SDS011;63008;53.112;8.896;2024-01-10T06:07:43;30.67;;;20.40;;
5125;SDS011;63008;53.112;8.896;2024-01-10T06:09:44;31.17;;;19.57;;
5125;SDS011;63008;53.112;8.896;2024-01-10T06:11:45;27.30;;;19.13;;
5125;SDS011;63008;53.112;8.896;2024-01-10T06:13:46;29.03;;;20.60;;
5125;SDS011;63008;53.112;8.896;2024-01-10T06:15:47;29.80;;;19.93;;
5125;SDS011;63008;53.112;8.896;2024-01-10T06:17:48;27.20;;;20.83;;
5125;SDS011;63008;53.112;8.896;2024-01-10T06:19:50;28.87;;;20.57;;
5125;SDS011;63008;53.112;8.896;2024-01-10T06:21:51;29.17;;;20.87;;
5125;SDS011;63008;53.112;8.896;2024-01-10T06:23:56;27.53;;;20.23;;
5125;SDS011;63008;53.112;8.896;2024-01-10T06:25:57;27.63;;;20.67;;
5125;SDS011;63008;53.112;8.896;2024-01-10T06:27:58;28.73;;;19.40;;
5125;SDS011;63008;53.112;8.896;2024-01-10T06:29:59;26.70;;;19.50;;
5125;SDS011;63008;53.112;8.896;2024-01-10T06:32:00;29.53;;;20.07;;
5125;SDS011;63008;53.112;8.896;2024-01-10T06:34:01;28.37;;;20.00;;
5125;SDS011;63008;53.112;8.896;2024-01-10T06:36:02;27.10;;;19.37;;
5125;SDS011;63008;53.112;8.896;2024-01-10T06:38:03;29.07;;;20.27;;
5125;SDS011;63008;53.112;8.896;2024-01-10T06:40:05;26.77;;;19.57;;
5125;SDS011;63008;53.112;8.896;2024-01-10T06:42:06;28.70;;;20.50;;
5125;SDS011;63008;53.112;8.896;2024-01-10T06:44:08;26.00;;;19.40;;
5125;SDS011;63008;53.112;8.896;2024-01-10T06:46:09;29.53;;;19.53;;
5125;SDS011;63008;53.112;8.896;2024-01-10T06:48:11;26.10;;;19.30;;
5125;SDS011;63008;53.112;8.896;2024-01-10T06:50:12;27.67;;;18.03;;
5125;SDS011;63008;53.112;8.896;2024-01-10T06:52:14;29.03;;;20.20;;
5125;SDS011;63008;53.112;8.896;2024-01-10T06:54:15;24.97;;;19.03;;
5125;SDS011;63008;53.112;8.896;2024-01-10T06:56:16;27.60;;;19.20;;
5125;SDS011;63008;53.112;8.896;2024-01-10T06:58:17;27.17;;;19.50;;
5125;SDS011;63008;53.112;8.896;2024-01-10T07:00:20;26.67;;;19.63;;
5125;SDS011;63008;53.112;8.896;2024-01-10T07:02:22;25.80;;;19.40;;
5125;SDS011;63008;53.112;8.896;2024-01-10T07:04:24;26.00;;;18.23;;
5125;SDS011;63008;53.112;8.896;2024-01-10T07:06:25;29.73;;;19.17;;
5125;SDS011;63008;53.112;8.896;2024-01-10T07:08:25;31.73;;;21.47;;
5125;SDS011;63008;53.112;8.896;2024-01-10T07:10:27;32.70;;;21.70;;
5125;SDS011;63008;53.112;8.896;2024-01-10T07:12:29;29.30;;;20.70;;
5125;SDS011;63008;53.112;8.896;2024-01-10T07:14:29;30.53;;;20.70;;
5125;SDS011;63008;53.112;8.896;2024-01-10T07:16:30;28.40;;;19.70;;
5125;SDS011;63008;53.112;8.896;2024-01-10T07:18:31;31.93;;;21.00;;
5125;SDS011;63008;53.112;8.896;2024-01-10T07:20:33;26.63;;;18.60;;
5125;SDS011;63008;53.112;8.896;2024-01-10T07:22:34;27.07;;;19.87;;
5125;SDS011;63008;53.112;8.896;2024-01-10T07:24:35;31.40;;;20.03;;
5125;SDS011;63008;53.112;8.896;2024-01-10T07:26:36;28.97;;;19.87;;
5125;SDS011;63008;53.112;8.896;2024-01-10T07:28:38;27.47;;;20.57;;
5125;SDS011;63008;53.112;8.896;2024-01-10T07:30:39;29.03;;;18.93;;
5125;SDS011;63008;53.112;8.896;2024-01-10T07:32:40;27.00;;;19.93;;
5125;SDS011;63008;53.112;8.896;2024-01-10T07:34:42;26.83;;;19.87;;
5125;SDS011;63008;53.112;8.896;2024-01-10T07:36:43;29.43;;;20.27;;
5125;SDS011;63008;53.112;8.896;2024-01-10T07:38:44;28.77;;;18.33;;
5125;SDS011;63008;53.112;8.896;2024-01-10T07:40:45;24.77;;;19.93;;
5125;SDS011;63008;53.112;8.896;2024-01-10T07:42:46;27.63;;;19.70;;
5125;SDS011;63008;53.112;8.896;2024-01-10T07:44:47;26.10;;;18.90;;
5125;SDS011;63008;53.112;8.896;2024-01-10T07:46:48;31.33;;;21.10;;
5125;SDS011;63008;53.112;8.896;2024-01-10T07:48:49;27.87;;;20.40;;
5125;SDS011;63008;53.112;8.896;2024-01-10T07:50:50;29.70;;;20.80;;
5125;SDS011;63008;53.112;8.896;2024-01-10T07:52:51;27.20;;;19.60;;
5125;SDS011;63008;53.112;8.896;2024-01-10T07:54:52;32.13;;;20.27;;
5125;SDS011;63008;53.112;8.896;2024-01-10T07:56:53;30.97;;;20.53;;
5125;SDS011;63008;53.112;8.896;2024-01-10T07:58:55;28.97;;;20.47;;
5125;SDS011;63008;53.112;8.896;2024-01-10T08:00:56;28.77;;;20.17;;
5125;SDS011;63008;53.112;8.896;2024-01-10T08:02:57;34.30;;;20.27;;
5125;SDS011;63008;53.112;8.896;2024-01-10T08:04:59;32.40;;;20.47;;
5125;SDS011;63008;53.112;8.896;2024-01-10T08:07:01;31.13;;;21.23;;
5125;SDS011;63008;53.112;8.896;2024-01-10T08:09:02;30.43;;;21.40;;
5125;SDS011;63008;53.112;8.896;2024-01-10T08:11:05;32.07;;;21.10;;
5125;SDS011;63008;53.112;8.896;2024-01-10T08:13:06;37.30;;;22.23;;
5125;SDS011;63008;53.112;8.896;2024-01-10T08:15:07;35.40;;;22.70;;
5125;SDS011;63008;53.112;8.896;2024-01-10T08:17:08;38.10;;;23.20;;
5125;SDS011;63008;53.112;8.896;2024-01-10T08:19:09;31.70;;;21.47;;
5125;SDS011;63008;53.112;8.896;2024-01-10T08:21:10;34.13;;;22.90;;
5125;SDS011;63008;53.112;8.896;2024-01-10T08:23:11;34.73;;;22.93;;
5125;SDS011;63008;53.112;8.896;2024-01-10T08:25:12;39.67;;;22.50;;
5125;SDS011;63008;53.112;8.896;2024-01-10T08:27:16;35.23;;;22.40;;
5125;SDS011;63008;53.112;8.896;2024-01-10T08:29:18;35.93;;;22.53;;
5125;SDS011;63008;53.112;8.896;2024-01-10T08:31:19;36.33;;;21.73;;
5125;SDS011;63008;53.112;8.896;2024-01-10T08:33:20;33.73;;;21.07;;
5125;SDS011;63008;53.112;8.896;2024-01-10T08:35:21;35.40;;;20.70;;
5125;SDS011;63008;53.112;8.896;2024-01-10T08:37:22;40.70;;;22.47;;
5125;SDS011;63008;53.112;8.896;2024-01-10T08:39:23;39.57;;;22.33;;
5125;SDS011;63008;53.112;8.896;2024-01-10T08:41:26;42.40;;;23.20;;
5125;SDS011;63008;53.112;8.896;2024-01-10T08:43:27;41.17;;;23.60;;
5125;SDS011;63008;53.112;8.896;2024-01-10T08:45:28;37.40;;;21.57;;
5125;SDS011;63008;53.112;8.896;2024-01-10T08:47:29;32.23;;;21.37;;
5125;SDS011;63008;53.112;8.896;2024-01-10T08:49:32;33.63;;;19.50;;
5125;SDS011;63008;53.112;8.896;2024-01-10T08:51:36;34.67;;;20.13;;
5125;SDS011;63008;53.112;8.896;2024-01-10T08:53:37;33.90;;;19.07;;
5125;SDS011;63008;53.112;8.896;2024-01-10T08:55:38;32.83;;;19.10;;
5125;SDS011;63008;53.112;8.896;2024-01-10T08:57:39;31.73;;;19.23;;
5125;SDS011;63008;53.112;8.896;2024-01-10T08:59:41;31.03;;;17.53;;
5125;SDS011;63008;53.112;8.896;2024-01-10T09:01:42;31.23;;;18.17;;
5125;SDS011;63008;53.112;8.896;2024-01-10T09:03:44;31.37;;;18.00;;
5125;SDS011;63008;53.112;8.896;2024-01-10T09:05:45;25.80;;;15.80;;
5125;SDS011;63008;53.112;8.896;2024-01-10T09:07:46;27.80;;;17.73;;
5125;SDS011;63008;53.112;8.896;2024-01-10T09:09:47;30.30;;;17.80;;
5125;SDS011;63008;53.112;8.896;2024-01-10T09:11:49;28.53;;;16.90;;
5125;SDS011;63008;53.112;8.896;2024-01-10T09:13:50;29.60;;;17.10;;
5125;SDS011;63008;53.112;8.896;2024-01-10T09:15:51;29.37;;;17.20;;
5125;SDS011;63008;53.112;8.896;2024-01-10T09:17:52;33.40;;;18.67;;
5125;SDS011;63008;53.112;8.896;2024-01-10T09:19:53;30.50;;;17.73;;
5125;SDS011;63008;53.112;8.896;2024-01-10T09:21:54;30.57;;;17.97;;
5125;SDS011;63008;53.112;8.896;2024-01-10T09:23:56;25.03;;;16.07;;
5125;SDS011;63008;53.112;8.896;2024-01-10T09:25:57;24.50;;;14.80;;
5125;SDS011;63008;53.112;8.896;2024-01-10T09:27:58;28.00;;;16.43;;
5125;SDS011;63008;53.112;8.896;2024-01-10T09:29:59;28.47;;;15.80;;
5125;SDS011;63008;53.112;8.896;2024-01-10T09:32:05;26.23;;;16.00;;
5125;SDS011;63008;53.112;8.896;2024-01-10T09:34:06;26.00;;;15.03;;
5125;SDS011;63008;53.112;8.896;2024-01-10T09:36:07;22.40;;;14.40;;
5125;SDS011;63008;53.112;8.896;2024-01-10T09:38:08;26.00;;;15.27;;
5125;SDS011;63008;53.112;8.896;2024-01-10T09:40:10;24.70;;;15.50;;
5125;SDS011;63008;53.112;8.896;2024-01-10T09:42:14;21.97;;;14.20;;
5125;SDS011;63008;53.112;8.896;2024-01-10T09:44:15;19.93;;;12.83;;
5125;SDS011;63008;53.112;8.896;2024-01-10T09:46:18;21.27;;;12.83;;
5125;SDS011;63008;53.112;8.896;2024-01-10T09:48:20;19.63;;;12.90;;
5125;SDS011;63008;53.112;8.896;2024-01-10T09:50:21;21.50;;;12.33;;
5125;SDS011;63008;53.112;8.896;2024-01-10T09:52:25;19.73;;;12.20;;
5125;SDS011;63008;53.112;8.896;2024-01-10T09:54:29;21.43;;;12.43;;
5125;SDS011;63008;53.112;8.896;2024-01-10T09:56:32;17.47;;;12.10;;
5125;SDS011;63008;53.112;8.896;2024-01-10T09:58:33;20.50;;;12.67;;
5125;SDS011;63008;53.112;8.896;2024-01-10T10:00:39;15.27;;;10.50;;
5125;SDS011;63008;53.112;8.896;2024-01-10T10:02:41;18.87;;;11.90;;
5125;SDS011;63008;53.112;8.896;2024-01-10T10:04:43;16.70;;;11.67;;
5125;SDS011;63008;53.112;8.896;2024-01-10T10:06:58;16.70;;;10.50;;
5125;SDS011;63008;53.112;8.896;2024-01-10T10:09:01;16.13;;;10.63;;
5125;SDS011;63008;53.112;8.896;2024-01-10T10:11:02;16.20;;;10.53;;
5125;SDS011;63008;53.112;8.896;2024-01-10T10:13:03;13.43;;;9.23;;
5125;SDS011;63008;53.112;8.896;2024-01-10T10:15:13;20.17;;;13.10;;
5125;SDS011;63008;53.112;8.896;2024-01-10T10:17:17;16.07;;;9.90;;
5125;SDS011;63008;53.112;8.896;2024-01-10T10:19:22;17.00;;;11.30;;
5125;SDS011;63008;53.112;8.896;2024-01-10T10:21:26;18.80;;;11.67;;
5125;SDS011;63008;53.112;8.896;2024-01-10T10:23:32;14.97;;;9.80;;
5125;SDS011;63008;53.112;8.896;2024-01-10T10:25:34;15.90;;;10.57;;
5125;SDS011;63008;53.112;8.896;2024-01-10T10:27:43;16.77;;;11.43;;
5125;SDS011;63008;53.112;8.896;2024-01-10T10:29:44;16.67;;;11.20;;
5125;SDS011;63008;53.112;8.896;2024-01-10T10:31:47;17.73;;;9.83;;
5125;SDS011;63008;53.112;8.896;2024-01-10T10:33:49;17.43;;;10.80;;
5125;SDS011;63008;53.112;8.896;2024-01-10T10:35:51;18.60;;;11.43;;
5125;SDS011;63008;53.112;8.896;2024-01-10T10:37:52;17.83;;;10.60;;
5125;SDS011;63008;53.112;8.896;2024-01-10T10:39:54;14.40;;;9.73;;
5125;SDS011;63008;53.112;8.896;2024-01-10T10:41:55;19.03;;;10.30;;
5125;SDS011;63008;53.112;8.896;2024-01-10T10:43:58;14.70;;;10.23;;
5125;SDS011;63008;53.112;8.896;2024-01-10T10:45:59;17.87;;;11.03;;
5125;SDS011;63008;53.112;8.896;2024-01-10T10:48:02;16.40;;;9.83;;
5125;SDS011;63008;53.112;8.896;2024-01-10T10:50:03;20.00;;;10.57;;
5125;SDS011;63008;53.112;8.896;2024-01-10T10:52:05;17.73;;;10.07;;
5125;SDS011;63008;53.112;8.896;2024-01-10T10:54:07;16.90;;;11.00;;
5125;SDS011;63008;53.112;8.896;2024-01-10T10:56:09;15.97;;;9.40;;
5125;SDS011;63008;53.112;8.896;2024-01-10T10:58:12;19.87;;;10.03;;
5125;SDS011;63008;53.112;8.896;2024-01-10T11:00:15;16.50;;;10.10;;
5125;SDS011;63008;53.112;8.896;2024-01-10T11:02:19;17.77;;;9.83;;
5125;SDS011;63008;53.112;8.896;2024-01-10T11:04:24;17.47;;;9.20;;
5125;SDS011;63008;53.112;8.896;2024-01-10T11:06:26;15.93;;;9.60;;
5125;SDS011;63008;53.112;8.896;2024-01-10T11:08:29;14.83;;;9.60;;
5125;SDS011;63008;53.112;8.896;2024-01-10T11:10:36;17.10;;;10.07;;
5125;SDS011;63008;53.112;8.896;2024-01-10T11:20:38;18.17;;;9.57;;
5125;SDS011;63008;53.112;8.896;2024-01-10T11:25:15;13.17;;;9.13;;
5125;SDS011;63008;53.112;8.896;2024-01-10T11:27:18;14.20;;;9.07;;
5125;SDS011;63008;53.112;8.896;2024-01-10T11:29:19;14.00;;;8.90;;
5125;SDS011;63008;53.112;8.896;2024-01-10T11:31:30;12.77;;;8.20;;
5125;SDS011;63008;53.112;8.896;2024-01-10T11:33:32;12.50;;;8.53;;
5125;SDS011;63008;53.112;8.896;2024-01-10T11:35:34;15.40;;;8.90;;
5125;SDS011;63008;53.112;8.896;2024-01-10T11:37:39;14.40;;;9.13;;
5125;SDS011;63008;53.112;8.896;2024-01-10T11:39:42;16.10;;;8.97;;
5125;SDS011;63008;53.112;8.896;2024-01-10T11:41:44;13.30;;;9.13;;
5125;SDS011;63008;53.112;8.896;2024-01-10T11:44:25;11.80;;;7.73;;
5125;SDS011;63008;53.112;8.896;2024-01-10T11:46:22;13.30;;;9.00;;
5125;SDS011;63008;53.112;8.896;2024-01-10T11:48:27;8.57;;;6.07;;
5125;SDS011;63008;53.112;8.896;2024-01-10T11:50:28;13.13;;;7.30;;
5125;SDS011;63008;53.112;8.896;2024-01-10T11:52:32;9.00;;;6.83;;
5125;SDS011;63008;53.112;8.896;2024-01-10T11:56:39;13.43;;;7.53;;
5125;SDS011;63008;53.112;8.896;2024-01-10T11:59:23;10.47;;;6.73;;
5125;SDS011;63008;53.112;8.896;2024-01-10T12:01:09;9.50;;;6.30;;
5125;SDS011;63008;53.112;8.896;2024-01-10T12:03:11;7.77;;;6.27;;
5125;SDS011;63008;53.112;8.896;2024-01-10T12:05:12;8.87;;;5.90;;
5125;SDS011;63008;53.112;8.896;2024-01-10T12:07:13;10.00;;;6.80;;
5125;SDS011;63008;53.112;8.896;2024-01-10T12:09:15;12.13;;;7.60;;
5125;SDS011;63008;53.112;8.896;2024-01-10T12:11:16;15.27;;;7.83;;
5125;SDS011;63008;53.112;8.896;2024-01-10T12:13:17;10.90;;;7.13;;
5125;SDS011;63008;53.112;8.896;2024-01-10T12:15:19;9.47;;;6.50;;
5125;SDS011;63008;53.112;8.896;2024-01-10T12:17:20;8.37;;;5.70;;